sensor_id;sensor_type;location;lat;lon;timestamp;P1;durP1;ratioP1;P2;durP2;ratioP2
4812;SDS011;2420;51.202;8.698;2022-08-01T00:01:49;11.40;;;10.20;;
4812;SDS011;2420;51.202;8.698;2022-08-01T00:04:15;11.98;;;10.65;;
4812;SDS011;2420;51.202;8.698;2022-08-01T00:06:40;11.57;;;10.38;;
4812;SDS011;2420;51.202;8.698;2022-08-01T00:09:06;11.80;;;10.52;;
4812;SDS011;2420;51.202;8.698;2022-08-01T00:11:31;11.15;;;10.05;;
4812;SDS011;2420;51.202;8.698;2022-08-01T00:13:57;11.73;;;9.65;;
4812;SDS011;2420;51.202;8.698;2022-08-01T00:16:22;10.57;;;9.48;;
4812;SDS011;2420;51.202;8.698;2022-08-01T00:18:51;10.45;;;8.85;;
4812;SDS011;2420;51.202;8.698;2022-08-01T00:21:17;8.75;;;6.80;;
4812;SDS011;2420;51.202;8.698;2022-08-01T00:23:42;7.97;;;7.18;;
4812;SDS011;2420;51.202;8.698;2022-08-01T00:26:10;7.53;;;6.72;;
4812;SDS011;2420;51.202;8.698;2022-08-01T00:28:37;7.85;;;7.05;;
4812;SDS011;2420;51.202;8.698;2022-08-01T00:31:03;7.00;;;6.22;;
4812;SDS011;2420;51.202;8.698;2022-08-01T00:33:28;8.45;;;7.65;;
4812;SDS011;2420;51.202;8.698;2022-08-01T00:35:54;9.07;;;7.40;;
4812;SDS011;2420;51.202;8.698;2022-08-01T00:38:19;8.10;;;7.13;;
4812;SDS011;2420;51.202;8.698;2022-08-01T00:40:45;8.85;;;7.30;;
4812;SDS011;2420;51.202;8.698;2022-08-01T00:43:11;8.93;;;7.60;;
4812;SDS011;2420;51.202;8.698;2022-08-01T00:45:36;8.43;;;7.53;;
4812;SDS011;2420;51.202;8.698;2022-08-01T00:48:02;8.95;;;7.60;;
4812;SDS011;2420;51.202;8.698;2022-08-01T00:50:28;9.55;;;7.95;;
4812;SDS011;2420;51.202;8.698;2022-08-01T00:52:54;9.48;;;7.88;;
4812;SDS011;2420;51.202;8.698;2022-08-01T00:55:20;9.32;;;8.32;;
4812;SDS011;2420;51.202;8.698;2022-08-01T00:57:46;8.48;;;7.28;;
4812;SDS011;2420;51.202;8.698;2022-08-01T01:00:13;9.77;;;7.38;;
4812;SDS011;2420;51.202;8.698;2022-08-01T01:02:39;7.97;;;7.18;;
4812;SDS011;2420;51.202;8.698;2022-08-01T01:05:05;9.98;;;7.65;;
4812;SDS011;2420;51.202;8.698;2022-08-01T01:10:12;7.43;;;6.57;;
4812;SDS011;2420;51.202;8.698;2022-08-01T01:13:20;7.10;;;6.40;;
4812;SDS011;2420;51.202;8.698;2022-08-01T01:15:47;7.72;;;6.70;;
4812;SDS011;2420;51.202;8.698;2022-08-01T01:18:32;8.40;;;7.20;;
4812;SDS011;2420;51.202;8.698;2022-08-01T01:26:51;6.07;;;5.47;;
4812;SDS011;2420;51.202;8.698;2022-08-01T01:29:26;6.57;;;5.85;;
4812;SDS011;2420;51.202;8.698;2022-08-01T01:32:04;6.10;;;5.50;;
4812;SDS011;2420;51.202;8.698;2022-08-01T01:34:33;8.10;;;6.00;;
4812;SDS011;2420;51.202;8.698;2022-08-01T01:37:02;6.05;;;5.45;;
4812;SDS011;2420;51.202;8.698;2022-08-01T01:39:31;6.60;;;6.00;;
4812;SDS011;2420;51.202;8.698;2022-08-01T01:41:58;6.63;;;5.85;;
4812;SDS011;2420;51.202;8.698;2022-08-01T01:44:26;6.22;;;5.63;;
4812;SDS011;2420;51.202;8.698;2022-08-01T01:46:52;7.60;;;5.68;;
4812;SDS011;2420;51.202;8.698;2022-08-01T01:49:19;6.93;;;5.45;;
4812;SDS011;2420;51.202;8.698;2022-08-01T01:51:48;5.82;;;5.22;;
4812;SDS011;2420;51.202;8.698;2022-08-01T01:54:16;4.95;;;4.45;;
4812;SDS011;2420;51.202;8.698;2022-08-01T01:56:42;5.45;;;4.45;;
4812;SDS011;2420;51.202;8.698;2022-08-01T01:59:21;4.75;;;4.32;;
4812;SDS011;2420;51.202;8.698;2022-08-01T02:01:52;4.30;;;3.90;;
4812;SDS011;2420;51.202;8.698;2022-08-01T02:04:20;3.90;;;3.55;;
4812;SDS011;2420;51.202;8.698;2022-08-01T02:06:47;4.10;;;3.60;;
4812;SDS011;2420;51.202;8.698;2022-08-01T02:09:17;4.05;;;3.40;;
4812;SDS011;2420;51.202;8.698;2022-08-01T02:11:45;3.63;;;3.33;;
4812;SDS011;2420;51.202;8.698;2022-08-01T02:14:12;3.85;;;3.45;;
4812;SDS011;2420;51.202;8.698;2022-08-01T02:16:39;4.05;;;2.90;;
4812;SDS011;2420;51.202;8.698;2022-08-01T02:19:07;3.15;;;2.85;;
4812;SDS011;2420;51.202;8.698;2022-08-01T02:21:37;3.70;;;3.30;;
4812;SDS011;2420;51.202;8.698;2022-08-01T02:24:13;3.30;;;3.00;;
4812;SDS011;2420;51.202;8.698;2022-08-01T02:26:49;3.75;;;3.35;;
4812;SDS011;2420;51.202;8.698;2022-08-01T02:29:33;2.95;;;2.65;;
4812;SDS011;2420;51.202;8.698;2022-08-01T02:32:04;3.25;;;2.88;;
4812;SDS011;2420;51.202;8.698;2022-08-01T02:34:32;3.17;;;2.88;;
4812;SDS011;2420;51.202;8.698;2022-08-01T02:37:00;2.75;;;2.55;;
4812;SDS011;2420;51.202;8.698;2022-08-01T02:39:28;2.63;;;2.42;;
4812;SDS011;2420;51.202;8.698;2022-08-01T02:41:57;2.72;;;2.53;;
4812;SDS011;2420;51.202;8.698;2022-08-01T02:44:27;2.55;;;2.35;;
4812;SDS011;2420;51.202;8.698;2022-08-01T02:47:02;2.22;;;2.03;;
4812;SDS011;2420;51.202;8.698;2022-08-01T02:49:33;2.50;;;2.20;;
4812;SDS011;2420;51.202;8.698;2022-08-01T02:52:05;2.40;;;2.20;;
4812;SDS011;2420;51.202;8.698;2022-08-01T02:54:33;3.45;;;2.20;;
4812;SDS011;2420;51.202;8.698;2022-08-01T02:57:01;2.10;;;1.90;;
4812;SDS011;2420;51.202;8.698;2022-08-01T02:59:28;2.10;;;1.90;;
4812;SDS011;2420;51.202;8.698;2022-08-01T03:01:56;2.42;;;1.70;;
4812;SDS011;2420;51.202;8.698;2022-08-01T03:04:24;2.25;;;1.95;;
4812;SDS011;2420;51.202;8.698;2022-08-01T03:06:51;2.20;;;2.00;;
4812;SDS011;2420;51.202;8.698;2022-08-01T03:09:19;2.28;;;1.80;;
4812;SDS011;2420;51.202;8.698;2022-08-01T03:11:46;2.80;;;2.15;;
4812;SDS011;2420;51.202;8.698;2022-08-01T03:14:13;2.33;;;2.13;;
4812;SDS011;2420;51.202;8.698;2022-08-01T03:16:41;2.25;;;2.05;;
4812;SDS011;2420;51.202;8.698;2022-08-01T03:19:08;2.03;;;1.83;;
4812;SDS011;2420;51.202;8.698;2022-08-01T03:21:36;2.00;;;1.80;;
4812;SDS011;2420;51.202;8.698;2022-08-01T03:24:03;3.47;;;1.83;;
4812;SDS011;2420;51.202;8.698;2022-08-01T03:26:32;2.47;;;1.60;;
4812;SDS011;2420;51.202;8.698;2022-08-01T03:29:02;2.47;;;1.80;;
4812;SDS011;2420;51.202;8.698;2022-08-01T03:31:36;2.10;;;1.90;;
4812;SDS011;2420;51.202;8.698;2022-08-01T03:34:03;2.65;;;2.20;;
4812;SDS011;2420;51.202;8.698;2022-08-01T03:36:29;2.67;;;2.28;;
4812;SDS011;2420;51.202;8.698;2022-08-01T03:38:59;3.10;;;2.80;;
4812;SDS011;2420;51.202;8.698;2022-08-01T03:41:30;3.88;;;2.90;;
4812;SDS011;2420;51.202;8.698;2022-08-01T03:44:07;3.67;;;2.95;;
4812;SDS011;2420;51.202;8.698;2022-08-01T03:46:41;4.43;;;3.65;;
4812;SDS011;2420;51.202;8.698;2022-08-01T03:49:20;5.20;;;3.92;;
4812;SDS011;2420;51.202;8.698;2022-08-01T03:51:48;4.30;;;3.90;;
4812;SDS011;2420;51.202;8.698;2022-08-01T03:54:20;5.30;;;4.30;;
4812;SDS011;2420;51.202;8.698;2022-08-01T03:56:48;5.20;;;4.60;;
4812;SDS011;2420;51.202;8.698;2022-08-01T03:59:16;6.00;;;5.13;;
4812;SDS011;2420;51.202;8.698;2022-08-01T04:01:43;5.88;;;4.90;;
4812;SDS011;2420;51.202;8.698;2022-08-01T04:04:10;6.07;;;5.10;;
4812;SDS011;2420;51.202;8.698;2022-08-01T04:06:40;5.88;;;4.97;;
4812;SDS011;2420;51.202;8.698;2022-08-01T04:09:09;5.72;;;4.60;;
4812;SDS011;2420;51.202;8.698;2022-08-01T04:11:35;6.07;;;5.47;;
4812;SDS011;2420;51.202;8.698;2022-08-01T04:14:00;5.47;;;4.93;;
4812;SDS011;2420;51.202;8.698;2022-08-01T04:16:26;5.47;;;4.90;;
4812;SDS011;2420;51.202;8.698;2022-08-01T04:18:51;5.82;;;5.22;;
4812;SDS011;2420;51.202;8.698;2022-08-01T04:21:20;5.95;;;5.35;;
4812;SDS011;2420;51.202;8.698;2022-08-01T04:23:52;7.82;;;5.47;;
4812;SDS011;2420;51.202;8.698;2022-08-01T04:26:19;6.88;;;5.78;;
4812;SDS011;2420;51.202;8.698;2022-08-01T04:28:46;6.10;;;5.50;;
4812;SDS011;2420;51.202;8.698;2022-08-01T04:31:14;5.93;;;5.32;;
4812;SDS011;2420;51.202;8.698;2022-08-01T04:33:42;7.90;;;5.88;;
4812;SDS011;2420;51.202;8.698;2022-08-01T04:36:10;6.05;;;5.30;;
4812;SDS011;2420;51.202;8.698;2022-08-01T04:38:40;7.38;;;5.65;;
4812;SDS011;2420;51.202;8.698;2022-08-01T04:41:07;9.18;;;6.30;;
4812;SDS011;2420;51.202;8.698;2022-08-01T04:43:36;9.38;;;6.82;;
4812;SDS011;2420;51.202;8.698;2022-08-01T04:46:02;7.10;;;6.35;;
4812;SDS011;2420;51.202;8.698;2022-08-01T04:48:28;8.27;;;6.97;;
4812;SDS011;2420;51.202;8.698;2022-08-01T04:50:56;10.98;;;7.25;;
4812;SDS011;2420;51.202;8.698;2022-08-01T04:53:21;8.43;;;6.88;;
4812;SDS011;2420;51.202;8.698;2022-08-01T04:55:47;8.48;;;7.30;;
4812;SDS011;2420;51.202;8.698;2022-08-01T04:58:14;10.40;;;6.80;;
4812;SDS011;2420;51.202;8.698;2022-08-01T05:00:40;8.50;;;6.78;;
4812;SDS011;2420;51.202;8.698;2022-08-01T05:03:06;8.80;;;7.15;;
4812;SDS011;2420;51.202;8.698;2022-08-01T05:05:32;12.90;;;8.30;;
4812;SDS011;2420;51.202;8.698;2022-08-01T05:07:58;11.38;;;8.88;;
4812;SDS011;2420;51.202;8.698;2022-08-01T05:10:23;10.43;;;7.88;;
4812;SDS011;2420;51.202;8.698;2022-08-01T05:12:50;8.90;;;7.53;;
4812;SDS011;2420;51.202;8.698;2022-08-01T05:15:16;10.00;;;8.57;;
4812;SDS011;2420;51.202;8.698;2022-08-01T05:17:42;9.38;;;8.05;;
4812;SDS011;2420;51.202;8.698;2022-08-01T05:20:07;9.60;;;7.55;;
4812;SDS011;2420;51.202;8.698;2022-08-01T05:22:33;9.82;;;7.97;;
4812;SDS011;2420;51.202;8.698;2022-08-01T05:24:59;10.95;;;8.68;;
4812;SDS011;2420;51.202;8.698;2022-08-01T05:27:25;9.00;;;7.93;;
4812;SDS011;2420;51.202;8.698;2022-08-01T05:29:51;9.63;;;7.78;;
4812;SDS011;2420;51.202;8.698;2022-08-01T05:32:16;9.38;;;8.20;;
4812;SDS011;2420;51.202;8.698;2022-08-01T05:34:42;9.43;;;8.30;;
4812;SDS011;2420;51.202;8.698;2022-08-01T05:37:08;11.15;;;8.70;;
4812;SDS011;2420;51.202;8.698;2022-08-01T05:39:33;9.88;;;8.18;;
4812;SDS011;2420;51.202;8.698;2022-08-01T05:41:59;9.85;;;8.32;;
4812;SDS011;2420;51.202;8.698;2022-08-01T05:44:25;9.32;;;7.68;;
4812;SDS011;2420;51.202;8.698;2022-08-01T05:46:50;11.65;;;8.90;;
4812;SDS011;2420;51.202;8.698;2022-08-01T05:49:16;10.35;;;7.80;;
4812;SDS011;2420;51.202;8.698;2022-08-01T05:51:42;10.30;;;7.95;;
4812;SDS011;2420;51.202;8.698;2022-08-01T05:54:07;9.20;;;8.20;;
4812;SDS011;2420;51.202;8.698;2022-08-01T05:56:33;10.27;;;8.77;;
4812;SDS011;2420;51.202;8.698;2022-08-01T05:58:59;11.75;;;8.63;;
4812;SDS011;2420;51.202;8.698;2022-08-01T06:01:24;8.93;;;8.02;;
4812;SDS011;2420;51.202;8.698;2022-08-01T06:03:50;9.85;;;8.85;;
4812;SDS011;2420;51.202;8.698;2022-08-01T06:06:17;9.93;;;8.05;;
4812;SDS011;2420;51.202;8.698;2022-08-01T06:08:43;9.93;;;8.55;;
4812;SDS011;2420;51.202;8.698;2022-08-01T06:11:08;11.25;;;8.50;;
4812;SDS011;2420;51.202;8.698;2022-08-01T06:13:34;10.38;;;8.27;;
4812;SDS011;2420;51.202;8.698;2022-08-01T06:15:59;11.27;;;8.23;;
4812;SDS011;2420;51.202;8.698;2022-08-01T06:18:25;9.85;;;8.30;;
4812;SDS011;2420;51.202;8.698;2022-08-01T06:20:50;10.02;;;7.90;;
4812;SDS011;2420;51.202;8.698;2022-08-01T06:23:16;9.52;;;8.48;;
4812;SDS011;2420;51.202;8.698;2022-08-01T06:25:42;9.93;;;7.95;;
4812;SDS011;2420;51.202;8.698;2022-08-01T06:28:08;9.45;;;7.38;;
4812;SDS011;2420;51.202;8.698;2022-08-01T06:30:33;10.23;;;7.82;;
4812;SDS011;2420;51.202;8.698;2022-08-01T06:32:59;10.13;;;8.55;;
4812;SDS011;2420;51.202;8.698;2022-08-01T06:35:25;9.82;;;7.35;;
4812;SDS011;2420;51.202;8.698;2022-08-01T06:37:51;9.43;;;7.65;;
4812;SDS011;2420;51.202;8.698;2022-08-01T06:40:17;8.38;;;7.28;;
4812;SDS011;2420;51.202;8.698;2022-08-01T06:42:45;9.02;;;7.40;;
4812;SDS011;2420;51.202;8.698;2022-08-01T06:45:11;8.32;;;7.18;;
4812;SDS011;2420;51.202;8.698;2022-08-01T06:47:38;9.07;;;7.97;;
4812;SDS011;2420;51.202;8.698;2022-08-01T06:50:05;9.43;;;8.20;;
4812;SDS011;2420;51.202;8.698;2022-08-01T06:52:32;8.02;;;7.22;;
4812;SDS011;2420;51.202;8.698;2022-08-01T06:54:58;7.82;;;6.78;;
4812;SDS011;2420;51.202;8.698;2022-08-01T06:57:24;8.65;;;7.55;;
4812;SDS011;2420;51.202;8.698;2022-08-01T06:59:50;9.02;;;6.82;;
4812;SDS011;2420;51.202;8.698;2022-08-01T07:02:16;8.68;;;7.50;;
4812;SDS011;2420;51.202;8.698;2022-08-01T07:04:41;7.53;;;6.50;;
4812;SDS011;2420;51.202;8.698;2022-08-01T07:07:07;9.88;;;6.75;;
4812;SDS011;2420;51.202;8.698;2022-08-01T07:09:32;6.90;;;6.20;;
4812;SDS011;2420;51.202;8.698;2022-08-01T07:11:58;6.10;;;5.50;;
4812;SDS011;2420;51.202;8.698;2022-08-01T07:14:24;7.03;;;5.55;;
4812;SDS011;2420;51.202;8.698;2022-08-01T07:16:49;7.43;;;5.53;;
4812;SDS011;2420;51.202;8.698;2022-08-01T07:19:15;8.43;;;5.13;;
4812;SDS011;2420;51.202;8.698;2022-08-01T07:21:41;6.03;;;5.07;;
4812;SDS011;2420;51.202;8.698;2022-08-01T07:24:08;9.63;;;5.03;;
4812;SDS011;2420;51.202;8.698;2022-08-01T07:26:35;6.00;;;5.10;;
4812;SDS011;2420;51.202;8.698;2022-08-01T07:29:01;6.57;;;5.65;;
4812;SDS011;2420;51.202;8.698;2022-08-01T07:31:27;9.18;;;6.10;;
4812;SDS011;2420;51.202;8.698;2022-08-01T07:33:53;8.45;;;5.20;;
4812;SDS011;2420;51.202;8.698;2022-08-01T07:36:19;8.10;;;6.07;;
4812;SDS011;2420;51.202;8.698;2022-08-01T07:38:45;6.22;;;5.63;;
4812;SDS011;2420;51.202;8.698;2022-08-01T07:41:11;8.65;;;5.95;;
4812;SDS011;2420;51.202;8.698;2022-08-01T07:43:36;7.60;;;5.65;;
4812;SDS011;2420;51.202;8.698;2022-08-01T07:46:05;7.93;;;5.93;;
4812;SDS011;2420;51.202;8.698;2022-08-01T07:48:31;9.00;;;6.07;;
4812;SDS011;2420;51.202;8.698;2022-08-01T07:50:57;8.30;;;5.70;;
4812;SDS011;2420;51.202;8.698;2022-08-01T07:53:22;6.60;;;5.78;;
4812;SDS011;2420;51.202;8.698;2022-08-01T07:55:48;6.40;;;5.80;;
4812;SDS011;2420;51.202;8.698;2022-08-01T07:58:14;9.48;;;5.65;;
4812;SDS011;2420;51.202;8.698;2022-08-01T08:00:40;7.75;;;5.97;;
4812;SDS011;2420;51.202;8.698;2022-08-01T08:03:06;6.78;;;5.63;;
4812;SDS011;2420;51.202;8.698;2022-08-01T08:05:31;6.78;;;5.95;;
4812;SDS011;2420;51.202;8.698;2022-08-01T08:08:09;6.85;;;5.60;;
4812;SDS011;2420;51.202;8.698;2022-08-01T08:10:35;6.93;;;5.60;;
4812;SDS011;2420;51.202;8.698;2022-08-01T08:13:01;6.05;;;5.45;;
4812;SDS011;2420;51.202;8.698;2022-08-01T08:15:27;6.40;;;5.80;;
4812;SDS011;2420;51.202;8.698;2022-08-01T08:17:53;6.57;;;5.43;;
4812;SDS011;2420;51.202;8.698;2022-08-01T08:20:18;6.63;;;5.50;;
4812;SDS011;2420;51.202;8.698;2022-08-01T08:22:46;6.32;;;5.25;;
4812;SDS011;2420;51.202;8.698;2022-08-01T08:25:11;5.78;;;5.15;;
4812;SDS011;2420;51.202;8.698;2022-08-01T08:27:37;5.97;;;5.38;;
4812;SDS011;2420;51.202;8.698;2022-08-01T08:30:03;6.22;;;5.57;;
4812;SDS011;2420;51.202;8.698;2022-08-01T08:32:32;5.75;;;5.18;;
4812;SDS011;2420;51.202;8.698;2022-08-01T08:34:58;6.00;;;5.40;;
4812;SDS011;2420;51.202;8.698;2022-08-01T08:37:23;6.05;;;5.45;;
4812;SDS011;2420;51.202;8.698;2022-08-01T08:39:49;7.35;;;5.50;;
4812;SDS011;2420;51.202;8.698;2022-08-01T08:42:14;5.93;;;5.32;;
4812;SDS011;2420;51.202;8.698;2022-08-01T08:44:40;6.07;;;5.53;;
4812;SDS011;2420;51.202;8.698;2022-08-01T08:47:07;7.30;;;5.75;;
4812;SDS011;2420;51.202;8.698;2022-08-01T08:49:35;6.18;;;5.28;;
4812;SDS011;2420;51.202;8.698;2022-08-01T08:52:01;6.65;;;6.05;;
4812;SDS011;2420;51.202;8.698;2022-08-01T08:54:29;6.00;;;5.40;;
4812;SDS011;2420;51.202;8.698;2022-08-01T08:56:55;5.30;;;4.80;;
4812;SDS011;2420;51.202;8.698;2022-08-01T08:59:22;5.90;;;5.30;;
4812;SDS011;2420;51.202;8.698;2022-08-01T09:01:51;5.78;;;5.18;;
4812;SDS011;2420;51.202;8.698;2022-08-01T09:04:17;6.30;;;5.20;;
4812;SDS011;2420;51.202;8.698;2022-08-01T09:06:43;5.68;;;5.18;;
4812;SDS011;2420;51.202;8.698;2022-08-01T09:09:09;5.80;;;5.15;;
4812;SDS011;2420;51.202;8.698;2022-08-01T09:11:35;6.13;;;5.30;;
4812;SDS011;2420;51.202;8.698;2022-08-01T09:14:06;5.85;;;5.25;;
4812;SDS011;2420;51.202;8.698;2022-08-01T09:16:32;7.20;;;5.55;;
4812;SDS011;2420;51.202;8.698;2022-08-01T09:19:12;6.80;;;6.13;;
4812;SDS011;2420;51.202;8.698;2022-08-01T09:22:02;5.95;;;4.80;;
4812;SDS011;2420;51.202;8.698;2022-08-01T09:24:29;6.13;;;5.53;;
4812;SDS011;2420;51.202;8.698;2022-08-01T09:26:57;6.32;;;5.72;;
4812;SDS011;2420;51.202;8.698;2022-08-01T09:29:24;6.20;;;5.60;;
4812;SDS011;2420;51.202;8.698;2022-08-01T09:31:52;6.75;;;5.38;;
4812;SDS011;2420;51.202;8.698;2022-08-01T09:34:24;6.68;;;5.95;;
4812;SDS011;2420;51.202;8.698;2022-08-01T09:36:52;7.07;;;5.43;;
4812;SDS011;2420;51.202;8.698;2022-08-01T09:39:24;6.38;;;5.30;;
4812;SDS011;2420;51.202;8.698;2022-08-01T09:41:54;7.55;;;5.35;;
4812;SDS011;2420;51.202;8.698;2022-08-01T09:47:23;5.47;;;4.90;;
4812;SDS011;2420;51.202;8.698;2022-08-01T09:50:04;7.43;;;5.00;;
4812;SDS011;2420;51.202;8.698;2022-08-01T09:52:30;5.90;;;5.32;;
4812;SDS011;2420;51.202;8.698;2022-08-01T09:55:01;7.85;;;5.18;;
4812;SDS011;2420;51.202;8.698;2022-08-01T09:57:28;6.35;;;5.60;;
4812;SDS011;2420;51.202;8.698;2022-08-01T09:59:55;5.85;;;5.25;;
4812;SDS011;2420;51.202;8.698;2022-08-01T10:02:32;6.10;;;5.45;;
4812;SDS011;2420;51.202;8.698;2022-08-01T10:05:06;9.48;;;5.80;;
4812;SDS011;2420;51.202;8.698;2022-08-01T10:07:33;6.32;;;5.72;;
4812;SDS011;2420;51.202;8.698;2022-08-01T10:10:10;7.82;;;5.78;;
4812;SDS011;2420;51.202;8.698;2022-08-01T10:12:39;6.32;;;5.65;;
4812;SDS011;2420;51.202;8.698;2022-08-01T10:15:06;6.82;;;6.22;;
4812;SDS011;2420;51.202;8.698;2022-08-01T10:17:34;6.30;;;5.70;;
4812;SDS011;2420;51.202;8.698;2022-08-01T10:20:02;6.40;;;5.80;;
4812;SDS011;2420;51.202;8.698;2022-08-01T10:22:29;6.57;;;5.97;;
4812;SDS011;2420;51.202;8.698;2022-08-01T10:24:56;6.68;;;6.07;;
4812;SDS011;2420;51.202;8.698;2022-08-01T10:27:24;7.18;;;5.80;;
4812;SDS011;2420;51.202;8.698;2022-08-01T10:30:00;6.20;;;5.60;;
4812;SDS011;2420;51.202;8.698;2022-08-01T10:32:30;6.25;;;5.65;;
4812;SDS011;2420;51.202;8.698;2022-08-01T10:34:57;6.55;;;5.82;;
4812;SDS011;2420;51.202;8.698;2022-08-01T10:37:23;6.75;;;6.15;;
4812;SDS011;2420;51.202;8.698;2022-08-01T10:39:50;6.75;;;6.15;;
4812;SDS011;2420;51.202;8.698;2022-08-01T10:42:17;6.43;;;5.70;;
4812;SDS011;2420;51.202;8.698;2022-08-01T10:44:43;6.25;;;5.65;;
4812;SDS011;2420;51.202;8.698;2022-08-01T10:47:13;6.38;;;5.78;;
4812;SDS011;2420;51.202;8.698;2022-08-01T10:49:44;6.30;;;5.15;;
4812;SDS011;2420;51.202;8.698;2022-08-01T10:52:40;6.72;;;6.03;;
4812;SDS011;2420;51.202;8.698;2022-08-01T10:55:07;5.78;;;5.28;;
4812;SDS011;2420;51.202;8.698;2022-08-01T10:57:46;6.20;;;5.60;;
4812;SDS011;2420;51.202;8.698;2022-08-01T11:00:19;5.93;;;5.43;;
4812;SDS011;2420;51.202;8.698;2022-08-01T11:02:59;6.60;;;6.00;;
4812;SDS011;2420;51.202;8.698;2022-08-01T11:05:30;5.90;;;5.30;;
4812;SDS011;2420;51.202;8.698;2022-08-01T11:07:58;5.22;;;4.72;;
4812;SDS011;2420;51.202;8.698;2022-08-01T11:10:36;5.80;;;5.18;;
4812;SDS011;2420;51.202;8.698;2022-08-01T11:13:07;6.35;;;5.47;;
4812;SDS011;2420;51.202;8.698;2022-08-01T11:15:36;6.90;;;6.20;;
4812;SDS011;2420;51.202;8.698;2022-08-01T11:18:03;5.60;;;5.10;;
4812;SDS011;2420;51.202;8.698;2022-08-01T11:20:58;6.10;;;5.50;;
4812;SDS011;2420;51.202;8.698;2022-08-01T11:23:26;6.18;;;5.28;;
4812;SDS011;2420;51.202;8.698;2022-08-01T11:28:19;6.47;;;5.88;;
4812;SDS011;2420;51.202;8.698;2022-08-01T11:30:46;6.80;;;5.82;;
4812;SDS011;2420;51.202;8.698;2022-08-01T11:33:13;6.40;;;5.80;;
4812;SDS011;2420;51.202;8.698;2022-08-01T11:41:10;5.40;;;4.93;;
4812;SDS011;2420;51.202;8.698;2022-08-01T11:52:04;5.70;;;5.20;;
4812;SDS011;2420;51.202;8.698;2022-08-01T11:54:31;6.80;;;5.43;;
4812;SDS011;2420;51.202;8.698;2022-08-01T11:56:59;6.00;;;5.40;;
4812;SDS011;2420;51.202;8.698;2022-08-01T11:59:27;5.55;;;5.05;;
4812;SDS011;2420;51.202;8.698;2022-08-01T12:01:53;21.48;;;5.65;;
4812;SDS011;2420;51.202;8.698;2022-08-01T12:04:18;4.20;;;3.80;;
4812;SDS011;2420;51.202;8.698;2022-08-01T12:06:44;5.00;;;4.50;;
4812;SDS011;2420;51.202;8.698;2022-08-01T12:09:17;5.78;;;4.38;;
4812;SDS011;2420;51.202;8.698;2022-08-01T12:11:46;4.40;;;4.00;;
4812;SDS011;2420;51.202;8.698;2022-08-01T12:14:19;5.22;;;4.72;;
4812;SDS011;2420;51.202;8.698;2022-08-01T12:16:49;4.82;;;4.32;;
4812;SDS011;2420;51.202;8.698;2022-08-01T12:19:18;5.70;;;4.70;;
4812;SDS011;2420;51.202;8.698;2022-08-01T12:21:45;5.07;;;4.57;;
4812;SDS011;2420;51.202;8.698;2022-08-01T12:24:29;5.18;;;4.60;;
4812;SDS011;2420;51.202;8.698;2022-08-01T12:26:54;4.88;;;4.47;;
4812;SDS011;2420;51.202;8.698;2022-08-01T12:29:39;6.80;;;4.90;;
4812;SDS011;2420;51.202;8.698;2022-08-01T12:32:25;5.65;;;4.65;;
4812;SDS011;2420;51.202;8.698;2022-08-01T12:34:56;326.90;;;29.73;;
4812;SDS011;2420;51.202;8.698;2022-08-01T12:37:29;5.35;;;4.78;;
4812;SDS011;2420;51.202;8.698;2022-08-01T12:39:55;6.18;;;4.47;;
4812;SDS011;2420;51.202;8.698;2022-08-01T12:42:22;5.00;;;4.50;;
4812;SDS011;2420;51.202;8.698;2022-08-01T12:44:50;5.30;;;4.80;;
4812;SDS011;2420;51.202;8.698;2022-08-01T12:47:16;4.72;;;4.30;;
4812;SDS011;2420;51.202;8.698;2022-08-01T12:49:45;4.60;;;4.20;;
4812;SDS011;2420;51.202;8.698;2022-08-01T12:52:12;3.90;;;3.60;;
4812;SDS011;2420;51.202;8.698;2022-08-01T12:57:27;4.47;;;3.85;;
4812;SDS011;2420;51.202;8.698;2022-08-01T12:59:53;5.38;;;4.18;;
4812;SDS011;2420;51.202;8.698;2022-08-01T13:02:33;4.03;;;3.65;;
4812;SDS011;2420;51.202;8.698;2022-08-01T13:04:59;3.70;;;3.40;;
4812;SDS011;2420;51.202;8.698;2022-08-01T13:07:35;3.50;;;3.20;;
4812;SDS011;2420;51.202;8.698;2022-08-01T13:10:06;4.03;;;3.38;;
4812;SDS011;2420;51.202;8.698;2022-08-01T13:12:32;3.97;;;3.65;;
4812;SDS011;2420;51.202;8.698;2022-08-01T13:14:58;3.50;;;3.20;;
4812;SDS011;2420;51.202;8.698;2022-08-01T13:17:33;3.78;;;3.47;;
4812;SDS011;2420;51.202;8.698;2022-08-01T13:20:04;4.10;;;3.80;;
4812;SDS011;2420;51.202;8.698;2022-08-01T13:22:33;3.85;;;3.55;;
4812;SDS011;2420;51.202;8.698;2022-08-01T13:25:10;4.18;;;3.55;;
4812;SDS011;2420;51.202;8.698;2022-08-01T13:27:36;3.85;;;3.55;;
4812;SDS011;2420;51.202;8.698;2022-08-01T13:32:40;3.70;;;3.40;;
4812;SDS011;2420;51.202;8.698;2022-08-01T13:35:09;3.65;;;3.28;;
4812;SDS011;2420;51.202;8.698;2022-08-01T13:37:37;3.08;;;2.78;;
4812;SDS011;2420;51.202;8.698;2022-08-01T13:40:05;5.00;;;3.28;;
4812;SDS011;2420;51.202;8.698;2022-08-01T13:42:32;3.47;;;3.17;;
4812;SDS011;2420;51.202;8.698;2022-08-01T13:44:58;4.20;;;3.00;;
4812;SDS011;2420;51.202;8.698;2022-08-01T13:47:23;3.08;;;2.88;;
4812;SDS011;2420;51.202;8.698;2022-08-01T13:49:49;3.00;;;2.75;;
4812;SDS011;2420;51.202;8.698;2022-08-01T13:52:15;3.17;;;2.78;;
4812;SDS011;2420;51.202;8.698;2022-08-01T13:54:40;2.80;;;2.60;;
4812;SDS011;2420;51.202;8.698;2022-08-01T13:57:06;2.90;;;2.70;;
4812;SDS011;2420;51.202;8.698;2022-08-01T13:59:31;4.05;;;2.60;;
4812;SDS011;2420;51.202;8.698;2022-08-01T14:01:57;4.70;;;2.67;;
4812;SDS011;2420;51.202;8.698;2022-08-01T14:04:23;3.67;;;2.55;;
4812;SDS011;2420;51.202;8.698;2022-08-01T14:06:48;3.50;;;2.50;;
4812;SDS011;2420;51.202;8.698;2022-08-01T14:09:14;6.22;;;2.75;;
4812;SDS011;2420;51.202;8.698;2022-08-01T14:11:42;3.10;;;2.80;;
4812;SDS011;2420;51.202;8.698;2022-08-01T14:14:08;3.70;;;2.88;;
4812;SDS011;2420;51.202;8.698;2022-08-01T14:16:33;3.45;;;2.95;;
4812;SDS011;2420;51.202;8.698;2022-08-01T14:18:59;3.63;;;3.17;;
4812;SDS011;2420;51.202;8.698;2022-08-01T14:21:25;3.38;;;2.90;;
4812;SDS011;2420;51.202;8.698;2022-08-01T14:23:50;4.50;;;2.83;;
4812;SDS011;2420;51.202;8.698;2022-08-01T14:26:16;2.67;;;2.47;;
4812;SDS011;2420;51.202;8.698;2022-08-01T14:28:42;2.35;;;2.17;;
4812;SDS011;2420;51.202;8.698;2022-08-01T14:31:07;2.47;;;2.28;;
4812;SDS011;2420;51.202;8.698;2022-08-01T14:33:33;2.80;;;2.20;;
4812;SDS011;2420;51.202;8.698;2022-08-01T14:35:59;4.50;;;2.40;;
4812;SDS011;2420;51.202;8.698;2022-08-01T14:38:25;2.80;;;2.20;;
4812;SDS011;2420;51.202;8.698;2022-08-01T14:40:51;2.35;;;2.15;;
4812;SDS011;2420;51.202;8.698;2022-08-01T14:43:17;2.45;;;2.25;;
4812;SDS011;2420;51.202;8.698;2022-08-01T14:45:43;3.50;;;2.35;;
4812;SDS011;2420;51.202;8.698;2022-08-01T14:48:09;3.22;;;2.38;;
4812;SDS011;2420;51.202;8.698;2022-08-01T14:50:34;2.88;;;2.42;;
4812;SDS011;2420;51.202;8.698;2022-08-01T14:53:00;2.42;;;2.20;;
4812;SDS011;2420;51.202;8.698;2022-08-01T14:55:26;2.60;;;2.40;;
4812;SDS011;2420;51.202;8.698;2022-08-01T14:57:52;2.72;;;2.53;;
4812;SDS011;2420;51.202;8.698;2022-08-01T15:00:18;2.67;;;2.47;;
4812;SDS011;2420;51.202;8.698;2022-08-01T15:02:44;3.72;;;2.30;;
4812;SDS011;2420;51.202;8.698;2022-08-01T15:05:10;2.83;;;2.22;;
4812;SDS011;2420;51.202;8.698;2022-08-01T15:07:36;2.10;;;2.00;;
4812;SDS011;2420;51.202;8.698;2022-08-01T15:10:03;2.70;;;2.50;;
4812;SDS011;2420;51.202;8.698;2022-08-01T15:12:29;2.97;;;2.03;;
4812;SDS011;2420;51.202;8.698;2022-08-01T15:14:55;2.63;;;2.20;;
4812;SDS011;2420;51.202;8.698;2022-08-01T15:17:21;2.40;;;2.17;;
4812;SDS011;2420;51.202;8.698;2022-08-01T15:19:49;2.30;;;2.10;;
4812;SDS011;2420;51.202;8.698;2022-08-01T15:22:17;2.53;;;2.17;;
4812;SDS011;2420;51.202;8.698;2022-08-01T15:24:43;2.10;;;1.90;;
4812;SDS011;2420;51.202;8.698;2022-08-01T15:27:09;2.20;;;2.10;;
4812;SDS011;2420;51.202;8.698;2022-08-01T15:29:36;1.70;;;1.60;;
4812;SDS011;2420;51.202;8.698;2022-08-01T15:32:05;2.10;;;1.90;;
4812;SDS011;2420;51.202;8.698;2022-08-01T15:34:32;2.22;;;2.03;;
4812;SDS011;2420;51.202;8.698;2022-08-01T15:37:02;2.13;;;1.95;;
4812;SDS011;2420;51.202;8.698;2022-08-01T15:39:28;2.08;;;1.98;;
4812;SDS011;2420;51.202;8.698;2022-08-01T15:41:54;3.60;;;1.90;;
4812;SDS011;2420;51.202;8.698;2022-08-01T15:44:19;1.88;;;1.75;;
4812;SDS011;2420;51.202;8.698;2022-08-01T15:46:47;2.10;;;2.00;;
4812;SDS011;2420;51.202;8.698;2022-08-01T15:49:13;2.97;;;2.10;;
4812;SDS011;2420;51.202;8.698;2022-08-01T15:51:39;2.10;;;1.90;;
4812;SDS011;2420;51.202;8.698;2022-08-01T15:54:05;2.20;;;2.00;;